createdAt,value
2018-05-18T00:00:17.149Z,1004.9
2018-05-18T00:01:17.889Z,1004.8
2018-05-18T00:02:18.869Z,1004.9
2018-05-18T00:03:19.588Z,1004.8
2018-05-18T00:04:20.305Z,1004.9
2018-05-18T00:05:21.039Z,1004.9
2018-05-18T00:06:21.787Z,1004.9
2018-05-18T00:07:22.514Z,1004.9
2018-05-18T00:08:23.248Z,1004.9
2018-05-18T00:09:23.969Z,1004.9
2018-05-18T00:10:24.689Z,1004.9
2018-05-18T00:11:25.509Z,1004.9
2018-05-18T00:12:26.225Z,1004.9
2018-05-18T00:13:26.933Z,1004.9
2018-05-18T00:14:27.667Z,1004.9
2018-05-18T00:15:28.383Z,1004.8
2018-05-18T00:16:29.101Z,1004.9
2018-05-18T00:17:29.820Z,1004.8
2018-05-18T00:18:30.645Z,1004.8
2018-05-18T00:19:31.354Z,1004.8
2018-05-18T00:20:32.083Z,1004.8
2018-05-18T00:21:32.805Z,1004.8
2018-05-18T00:22:33.782Z,1004.8
2018-05-18T00:23:34.547Z,1004.8
2018-05-18T00:24:35.455Z,1004.8
2018-05-18T00:25:36.198Z,1004.7
2018-05-18T00:26:36.956Z,1004.7
2018-05-18T00:27:37.693Z,1004.8
2018-05-18T00:28:38.470Z,1004.7
2018-05-18T00:29:39.437Z,1004.7
2018-05-18T00:30:40.188Z,1004.7
2018-05-18T00:31:40.923Z,1004.7
2018-05-18T00:32:41.680Z,1004.8
2018-05-18T00:33:42.446Z,1004.8
2018-05-18T00:34:43.389Z,1004.8
2018-05-18T00:35:44.259Z,1004.7
2018-05-18T00:36:45.032Z,1004.7
2018-05-18T00:37:45.800Z,1004.8
2018-05-18T00:38:46.625Z,1004.7
2018-05-18T00:39:47.824Z,1004.8
2018-05-18T00:40:48.692Z,1004.8
2018-05-18T00:41:49.433Z,1004.8
2018-05-18T00:42:50.609Z,1004.8
2018-05-18T00:43:51.353Z,1004.8
2018-05-18T00:44:52.159Z,1004.8
2018-05-18T00:45:52.897Z,1004.8
2018-05-18T00:46:53.798Z,1004.8
2018-05-18T00:47:54.629Z,1004.8
2018-05-18T00:48:55.350Z,1004.8
2018-05-18T00:49:56.252Z,1004.8
2018-05-18T00:50:57.012Z,1004.8
2018-05-18T00:51:57.773Z,1004.8
2018-05-18T00:52:58.523Z,1004.8
2018-05-18T00:53:59.304Z,1004.7
2018-05-18T00:55:00.473Z,1004.7
2018-05-18T00:56:01.200Z,1004.8
2018-05-18T00:57:01.973Z,1004.7
2018-05-18T00:58:02.744Z,1004.7
2018-05-18T00:59:03.592Z,1004.7
2018-05-18T01:00:04.380Z,1004.7
2018-05-18T01:01:05.137Z,1004.7
2018-05-18T01:02:05.905Z,1004.8
2018-05-18T01:03:06.667Z,1004.8
2018-05-18T01:04:07.403Z,1004.8
2018-05-18T01:05:08.119Z,1004.7
2018-05-18T01:06:08.941Z,1004.8
2018-05-18T01:07:09.659Z,1004.7
2018-05-18T01:08:10.379Z,1004.8
2018-05-18T01:09:11.101Z,1004.8
2018-05-18T01:10:11.825Z,1004.8
2018-05-18T01:11:12.548Z,1004.8
2018-05-18T01:12:13.313Z,1004.7
2018-05-18T01:13:14.037Z,1004.8
2018-05-18T01:14:14.758Z,1004.8
2018-05-18T01:15:15.474Z,1004.8
2018-05-18T01:16:16.191Z,1004.8
2018-05-18T01:17:17.012Z,1004.8
2018-05-18T01:18:17.736Z,1004.8
2018-05-18T01:19:18.456Z,1004.8
2018-05-18T01:20:19.182Z,1004.8
2018-05-18T01:21:19.911Z,1004.8
2018-05-18T01:22:20.679Z,1004.8
2018-05-18T01:23:21.396Z,1004.8
2018-05-18T01:24:22.111Z,1004.8
2018-05-18T01:25:23.092Z,1004.8
2018-05-18T01:26:23.806Z,1004.8
2018-05-18T01:27:24.539Z,1004.8
2018-05-18T01:28:25.375Z,1004.8
2018-05-18T01:29:26.090Z,1004.8
2018-05-18T01:30:26.810Z,1004.8
2018-05-18T01:31:27.539Z,1004.8
2018-05-18T01:32:28.249Z,1004.8
2018-05-18T01:33:29.062Z,1004.8
2018-05-18T01:34:29.783Z,1004.7
2018-05-18T01:35:30.506Z,1004.7
2018-05-18T01:36:31.258Z,1004.7
2018-05-18T01:37:31.964Z,1004.7
2018-05-18T01:38:32.694Z,1004.6
2018-05-18T01:39:33.413Z,1004.6
2018-05-18T01:40:34.132Z,1004.7
2018-05-18T01:41:34.873Z,1004.7
2018-05-18T01:42:35.595Z,1004.6
2018-05-18T01:43:36.568Z,1004.7
2018-05-18T01:44:37.285Z,1004.7
2018-05-18T01:45:37.999Z,1004.7
2018-05-18T01:46:38.775Z,1004.6
2018-05-18T01:47:39.503Z,1004.7
2018-05-18T01:48:40.226Z,1004.7
2018-05-18T01:49:41.192Z,1004.7
2018-05-18T01:50:41.904Z,1004.7
2018-05-18T01:51:42.723Z,1004.7
2018-05-18T01:52:43.436Z,1004.7
2018-05-18T01:53:44.160Z,1004.6
2018-05-18T01:54:45.136Z,1004.7
2018-05-18T01:55:45.840Z,1004.6
2018-05-18T01:56:46.666Z,1004.6
2018-05-18T01:57:47.385Z,1004.6
2018-05-18T01:58:48.112Z,1004.6
2018-05-18T01:59:48.834Z,1004.6
2018-05-18T02:00:49.553Z,1004.6
2018-05-18T02:01:50.263Z,1004.6
2018-05-18T02:02:50.994Z,1004.6
2018-05-18T02:03:51.706Z,1004.6
2018-05-18T02:04:52.422Z,1004.6
2018-05-18T02:05:53.583Z,1004.6
2018-05-18T02:06:54.332Z,1004.7
2018-05-18T02:07:55.096Z,1004.7
2018-05-18T02:08:55.854Z,1004.7
2018-05-18T02:09:56.702Z,1004.7
2018-05-18T02:10:57.521Z,1004.7
2018-05-18T02:11:58.265Z,1004.7
2018-05-18T02:12:59.007Z,1004.7
2018-05-18T02:13:59.747Z,1004.7
2018-05-18T02:15:00.476Z,1004.7
2018-05-18T02:16:01.282Z,1004.7
2018-05-18T02:17:02.047Z,1004.7
2018-05-18T02:18:03.203Z,1004.7
2018-05-18T02:19:03.968Z,1004.7
2018-05-18T02:20:04.780Z,1004.7
2018-05-18T02:21:05.578Z,1004.7
2018-05-18T02:22:06.348Z,1004.7
2018-05-18T02:23:07.085Z,1004.7
2018-05-18T02:24:07.818Z,1004.8
2018-05-18T02:25:08.604Z,1004.8
2018-05-18T02:26:09.358Z,1004.7
2018-05-18T02:27:10.210Z,1004.7
2018-05-18T02:28:11.004Z,1004.8
2018-05-18T02:29:11.746Z,1004.8
2018-05-18T02:30:12.482Z,1004.8
2018-05-18T02:31:13.252Z,1004.8
2018-05-18T02:32:13.962Z,1004.8
2018-05-18T02:33:14.680Z,1004.8
2018-05-18T02:34:15.391Z,1004.8
2018-05-18T02:35:16.118Z,1004.8
2018-05-18T02:36:16.842Z,1004.8
2018-05-18T02:37:17.555Z,1004.8
2018-05-18T02:38:18.274Z,1004.7
2018-05-18T02:39:19.005Z,1004.7
2018-05-18T02:40:19.717Z,1004.8
2018-05-18T02:41:20.422Z,1004.7
2018-05-18T02:42:21.143Z,1004.7
2018-05-18T02:43:21.863Z,1004.7
2018-05-18T02:44:22.842Z,1004.7
2018-05-18T02:45:23.601Z,1004.7
2018-05-18T02:46:24.333Z,1004.7
2018-05-18T02:47:25.052Z,1004.7
2018-05-18T02:48:25.767Z,1004.7
2018-05-18T02:49:26.484Z,1004.7
2018-05-18T02:50:27.194Z,1004.7
2018-05-18T02:51:27.952Z,1004.7
2018-05-18T02:52:28.722Z,1004.7
2018-05-18T02:53:29.384Z,1004.7
2018-05-18T02:54:30.107Z,1004.7
2018-05-18T02:55:30.818Z,1004.7
2018-05-18T02:56:31.786Z,1004.7
2018-05-18T02:57:32.598Z,1004.7
2018-05-18T02:58:33.311Z,1004.7
2018-05-18T02:59:34.038Z,1004.7
2018-05-18T03:00:34.749Z,1004.7
2018-05-18T03:01:35.583Z,1004.7
2018-05-18T03:02:36.339Z,1004.7
2018-05-18T03:03:37.059Z,1004.7
2018-05-18T03:04:37.773Z,1004.7
2018-05-18T03:05:38.491Z,1004.7
2018-05-18T03:06:39.220Z,1004.7
2018-05-18T03:07:39.937Z,1004.7
2018-05-18T03:08:40.673Z,1004.7
2018-05-18T03:09:41.384Z,1004.7
2018-05-18T03:10:42.101Z,1004.7
2018-05-18T03:11:42.816Z,1004.7
2018-05-18T03:12:43.544Z,1004.7
2018-05-18T03:13:44.375Z,1004.7
2018-05-18T03:14:45.352Z,1004.7
2018-05-18T03:15:46.079Z,1004.7
2018-05-18T03:16:46.801Z,1004.7
2018-05-18T03:17:47.527Z,1004.7
2018-05-18T03:18:48.342Z,1004.7
2018-05-18T03:19:49.074Z,1004.7
2018-05-18T03:20:50.055Z,1004.7
2018-05-18T03:21:50.775Z,1004.7
2018-05-18T03:22:51.494Z,1004.7
2018-05-18T03:23:52.212Z,1004.7
2018-05-18T03:24:52.938Z,1004.7
2018-05-18T03:25:53.666Z,1004.7
2018-05-18T03:26:54.378Z,1004.7
2018-05-18T03:27:55.348Z,1004.7
2018-05-18T03:28:56.165Z,1004.8
2018-05-18T03:29:56.889Z,1004.8
2018-05-18T03:30:57.613Z,1004.8
2018-05-18T03:31:58.336Z,1004.8
2018-05-18T03:32:59.061Z,1004.8
2018-05-18T03:33:59.821Z,1004.8
2018-05-18T03:35:00.578Z,1004.8
2018-05-18T03:36:01.318Z,1004.8
2018-05-18T03:37:02.076Z,1004.8
2018-05-18T03:38:03.027Z,1004.8
2018-05-18T03:39:03.814Z,1004.8
2018-05-18T03:40:04.547Z,1004.8
2018-05-18T03:41:05.266Z,1004.8
2018-05-18T03:42:05.979Z,1004.8
2018-05-18T03:43:06.705Z,1004.8
2018-05-18T03:44:07.482Z,1004.8
2018-05-18T03:45:08.198Z,1004.9
2018-05-18T03:46:08.917Z,1004.9
2018-05-18T03:47:09.891Z,1004.8
2018-05-18T03:48:10.862Z,1004.9
2018-05-18T03:49:11.886Z,1004.9
2018-05-18T03:50:12.876Z,1004.9
2018-05-18T03:51:13.863Z,1004.8
2018-05-18T03:52:14.573Z,1004.9
2018-05-18T03:53:15.559Z,1004.8
2018-05-18T03:54:16.278Z,1004.8
2018-05-18T03:55:17.001Z,1004.9
2018-05-18T03:56:17.734Z,1004.9
2018-05-18T03:57:18.449Z,1004.9
2018-05-18T03:58:19.191Z,1004.9
2018-05-18T03:59:19.902Z,1004.9
2018-05-18T04:00:21.020Z,1004.9
2018-05-18T04:01:21.798Z,1004.9
2018-05-18T04:02:22.472Z,1004.9
2018-05-18T04:03:23.183Z,1004.9
2018-05-18T04:04:23.905Z,1004.9
2018-05-18T04:05:25.136Z,1005.0
2018-05-18T04:06:25.920Z,1005.0
2018-05-18T04:07:26.641Z,1004.9
2018-05-18T04:08:27.370Z,1004.9
2018-05-18T04:09:28.357Z,1004.9
2018-05-18T04:10:29.069Z,1004.9
2018-05-18T04:11:29.785Z,1005.0
2018-05-18T04:12:30.513Z,1005.0
2018-05-18T04:13:31.339Z,1004.9
2018-05-18T04:14:32.053Z,1004.9
2018-05-18T04:15:32.778Z,1005.0
2018-05-18T04:16:33.491Z,1005.0
2018-05-18T04:17:34.224Z,1005.0
2018-05-18T04:18:35.294Z,1005.0
2018-05-18T04:19:36.018Z,1005.0
2018-05-18T04:20:36.754Z,1005.1
2018-05-18T04:21:37.478Z,1005.0
2018-05-18T04:22:38.194Z,1005.1
2018-05-18T04:23:39.015Z,1005.1
2018-05-18T04:24:39.748Z,1005.1
2018-05-18T04:25:40.472Z,1005.1
2018-05-18T04:26:41.197Z,1005.0
2018-05-18T04:27:41.922Z,1005.0
2018-05-18T04:28:42.909Z,1005.1
2018-05-18T04:29:43.638Z,1005.0
2018-05-18T04:30:44.358Z,1005.0
2018-05-18T04:31:45.078Z,1005.0
2018-05-18T04:32:46.053Z,1005.0
2018-05-18T04:33:46.821Z,1005.1
2018-05-18T04:34:47.538Z,1005.0
2018-05-18T04:35:48.253Z,1005.0
2018-05-18T04:36:48.974Z,1005.0
2018-05-18T04:37:49.945Z,1005.0
2018-05-18T04:38:51.081Z,1005.0
2018-05-18T04:39:51.796Z,1005.0
2018-05-18T04:40:52.529Z,1005.0
2018-05-18T04:41:53.262Z,1005.0
2018-05-18T04:42:54.250Z,1005.0
2018-05-18T04:43:55.312Z,1005.0
2018-05-18T04:44:56.522Z,1005.1
2018-05-18T04:45:57.245Z,1005.1
2018-05-18T04:46:58.017Z,1005.0
2018-05-18T04:47:58.783Z,1005.0
2018-05-18T04:48:59.702Z,1005.1
2018-05-18T04:50:00.535Z,1005.1
2018-05-18T04:51:01.341Z,1005.1
2018-05-18T04:52:02.049Z,1005.1
2018-05-18T04:53:02.794Z,1005.1
2018-05-18T04:54:03.583Z,1005.1
2018-05-18T04:55:04.384Z,1005.2
2018-05-18T04:56:05.299Z,1005.2
2018-05-18T04:57:06.039Z,1005.2
2018-05-18T04:58:06.867Z,1005.2
2018-05-18T04:59:08.111Z,1005.2
2018-05-18T05:00:08.854Z,1005.2
2018-05-18T05:01:09.687Z,1005.2
2018-05-18T05:02:10.498Z,1005.2
2018-05-18T05:03:11.223Z,1005.2
2018-05-18T05:04:11.996Z,1005.2
2018-05-18T05:05:13.447Z,1005.2
2018-05-18T05:06:14.169Z,1005.2
2018-05-18T05:07:14.911Z,1005.2
2018-05-18T05:08:15.811Z,1005.3
2018-05-18T05:09:16.537Z,1005.3
2018-05-18T05:10:17.539Z,1005.3
2018-05-18T05:11:18.261Z,1005.3
2018-05-18T05:12:19.029Z,1005.3
2018-05-18T05:13:19.792Z,1005.3
2018-05-18T05:14:21.070Z,1005.3
2018-05-18T05:15:21.864Z,1005.3
2018-05-18T05:16:22.638Z,1005.3
2018-05-18T05:17:23.408Z,1005.2
2018-05-18T05:18:24.199Z,1005.3
2018-05-18T05:19:24.972Z,1005.3
2018-05-18T05:20:26.122Z,1005.3
2018-05-18T05:21:26.835Z,1005.3
2018-05-18T05:22:27.576Z,1005.3
2018-05-18T05:23:28.293Z,1005.3
2018-05-18T05:24:29.263Z,1005.3
2018-05-18T05:25:30.006Z,1005.3
2018-05-18T05:26:30.731Z,1005.3
2018-05-18T05:27:31.448Z,1005.3
2018-05-18T05:28:32.195Z,1005.3
2018-05-18T05:29:33.030Z,1005.3
2018-05-18T05:30:33.807Z,1005.3
2018-05-18T05:31:34.474Z,1005.4
2018-05-18T05:32:35.190Z,1005.4
2018-05-18T05:33:35.919Z,1005.3
2018-05-18T05:34:36.798Z,1005.4
2018-05-18T05:35:37.524Z,1005.4
2018-05-18T05:36:38.321Z,1005.4
2018-05-18T05:37:38.981Z,1005.4
2018-05-18T05:38:39.707Z,1005.4
2018-05-18T05:39:40.422Z,1005.4
2018-05-18T05:40:41.405Z,1005.4
2018-05-18T05:41:42.139Z,1005.5
2018-05-18T05:42:42.868Z,1005.4
2018-05-18T05:43:43.841Z,1005.5
2018-05-18T05:44:44.566Z,1005.5
2018-05-18T05:45:45.288Z,1005.5
2018-05-18T05:46:46.335Z,1005.5
2018-05-18T05:47:46.973Z,1005.5
2018-05-18T05:48:47.690Z,1005.5
2018-05-18T05:49:48.425Z,1005.5
2018-05-18T05:50:49.152Z,1005.6
2018-05-18T05:51:49.876Z,1005.5
2018-05-18T05:52:50.615Z,1005.5
2018-05-18T05:53:51.331Z,1005.6
2018-05-18T05:54:52.295Z,1005.6
2018-05-18T05:55:53.018Z,1005.6
2018-05-18T05:56:53.747Z,1005.6
2018-05-18T05:57:54.475Z,1005.6
2018-05-18T05:58:55.198Z,1005.6
2018-05-18T05:59:55.922Z,1005.6
2018-05-18T06:00:56.664Z,1005.6
2018-05-18T06:01:57.385Z,1005.6
2018-05-18T06:02:58.122Z,1005.6
2018-05-18T06:03:58.839Z,1005.6
2018-05-18T06:04:59.566Z,1005.6
2018-05-18T06:06:00.288Z,1005.7
2018-05-18T06:07:01.016Z,1005.7
2018-05-18T06:08:01.755Z,1005.7
2018-05-18T06:09:02.882Z,1005.6
2018-05-18T06:10:03.873Z,1005.7
2018-05-18T06:11:04.601Z,1005.7
2018-05-18T06:12:05.351Z,1005.7
2018-05-18T06:13:06.319Z,1005.7
2018-05-18T06:14:07.435Z,1005.7
2018-05-18T06:15:08.420Z,1005.7
2018-05-18T06:16:09.128Z,1005.7
2018-05-18T06:17:09.846Z,1005.7
2018-05-18T06:18:10.829Z,1005.7
2018-05-18T06:19:11.695Z,1005.7
2018-05-18T06:20:12.421Z,1005.6
2018-05-18T06:21:13.148Z,1005.7
2018-05-18T06:22:13.865Z,1005.6
2018-05-18T06:23:14.609Z,1005.7
2018-05-18T06:24:15.490Z,1005.6
2018-05-18T06:25:16.217Z,1005.6
2018-05-18T06:26:16.945Z,1005.7
2018-05-18T06:27:17.669Z,1005.7
2018-05-18T06:28:18.386Z,1005.7
2018-05-18T06:29:19.126Z,1005.7
2018-05-18T06:30:19.838Z,1005.7
2018-05-18T06:31:20.568Z,1005.7
2018-05-18T06:32:21.296Z,1005.8
2018-05-18T06:33:22.031Z,1005.8
2018-05-18T06:34:22.771Z,1005.8
2018-05-18T06:35:23.482Z,1005.7
2018-05-18T06:36:24.209Z,1005.7
2018-05-18T06:37:24.924Z,1005.7
2018-05-18T06:38:25.656Z,1005.8
2018-05-18T06:39:26.385Z,1005.8
2018-05-18T06:40:27.363Z,1005.8
2018-05-18T06:41:28.086Z,1005.8
2018-05-18T06:42:28.812Z,1005.8
2018-05-18T06:43:29.552Z,1005.8
2018-05-18T06:44:30.279Z,1005.8
2018-05-18T06:45:31.007Z,1005.8
2018-05-18T06:46:31.782Z,1005.8
2018-05-18T06:47:32.501Z,1005.8
2018-05-18T06:48:33.233Z,1005.8
2018-05-18T06:49:33.953Z,1005.8
2018-05-18T06:50:34.734Z,1005.8
2018-05-18T06:51:35.441Z,1005.8
2018-05-18T06:52:36.452Z,1005.8
2018-05-18T06:53:37.155Z,1005.8
2018-05-18T06:54:37.880Z,1005.8
2018-05-18T06:55:38.621Z,1005.8
2018-05-18T06:56:39.499Z,1005.9
2018-05-18T06:57:40.234Z,1005.9
2018-05-18T06:58:41.041Z,1005.9
2018-05-18T06:59:41.784Z,1005.9
2018-05-18T07:00:42.559Z,1005.9
2018-05-18T07:01:43.392Z,1005.8
2018-05-18T07:02:44.354Z,1005.8
2018-05-18T07:03:45.142Z,1005.9
2018-05-18T07:04:46.018Z,1005.8
2018-05-18T07:05:46.740Z,1005.9
2018-05-18T07:06:47.467Z,1005.9
2018-05-18T07:07:48.201Z,1005.9
2018-05-18T07:08:48.918Z,1005.9
2018-05-18T07:09:49.644Z,1005.9
2018-05-18T07:10:50.376Z,1005.9
2018-05-18T07:11:51.103Z,1005.9
2018-05-18T07:12:51.829Z,1005.8
2018-05-18T07:13:52.811Z,1005.9
2018-05-18T07:14:53.552Z,1005.9
2018-05-18T07:15:54.625Z,1005.8
2018-05-18T07:16:55.345Z,1005.8
2018-05-18T07:17:56.073Z,1005.8
2018-05-18T07:18:56.797Z,1005.9
2018-05-18T07:19:57.545Z,1005.9
2018-05-18T07:20:58.265Z,1005.9
2018-05-18T07:21:59.000Z,1005.8
2018-05-18T07:22:59.754Z,1005.9
2018-05-18T07:24:00.465Z,1005.8
2018-05-18T07:25:01.200Z,1005.8
2018-05-18T07:26:01.927Z,1005.8
2018-05-18T07:27:02.768Z,1005.8
2018-05-18T07:28:03.504Z,1005.8
2018-05-18T07:29:04.226Z,1005.8
2018-05-18T07:30:04.995Z,1005.8
2018-05-18T07:31:05.938Z,1005.8
2018-05-18T07:32:06.673Z,1005.8
2018-05-18T07:33:07.649Z,1005.9
2018-05-18T07:34:08.382Z,1005.9
2018-05-18T07:35:09.115Z,1005.9
2018-05-18T07:36:09.937Z,1005.9
2018-05-18T07:37:10.574Z,1005.9
2018-05-18T07:38:11.407Z,1005.9
2018-05-18T07:39:12.136Z,1005.9
2018-05-18T07:40:12.853Z,1005.9
2018-05-18T07:41:13.607Z,1005.9
2018-05-18T07:42:14.330Z,1005.9
2018-05-18T07:43:15.098Z,1005.9
2018-05-18T07:44:15.829Z,1005.9
2018-05-18T07:45:16.552Z,1005.9
2018-05-18T07:46:17.271Z,1005.9
2018-05-18T07:47:18.012Z,1005.9
2018-05-18T07:48:18.781Z,1005.9
2018-05-18T07:49:19.509Z,1005.9
2018-05-18T07:50:20.492Z,1005.9
2018-05-18T07:51:21.238Z,1005.9
2018-05-18T07:52:21.954Z,1005.9
2018-05-18T07:53:22.932Z,1005.9
2018-05-18T07:54:23.955Z,1005.9
2018-05-18T07:55:24.687Z,1005.9
2018-05-18T07:56:25.405Z,1005.9
2018-05-18T07:57:26.380Z,1005.9
2018-05-18T07:58:27.361Z,1005.8
2018-05-18T07:59:28.090Z,1005.9
2018-05-18T08:00:28.977Z,1005.9
2018-05-18T08:01:29.692Z,1005.9
2018-05-18T08:02:30.434Z,1005.9
2018-05-18T08:03:31.410Z,1005.9
2018-05-18T08:04:32.168Z,1005.9
2018-05-18T08:05:32.885Z,1005.9
2018-05-18T08:06:33.777Z,1005.9
2018-05-18T08:07:34.764Z,1005.9
2018-05-18T08:08:35.474Z,1005.9
2018-05-18T08:09:36.206Z,1005.9
2018-05-18T08:10:36.933Z,1005.9
2018-05-18T08:11:37.653Z,1005.9
2018-05-18T08:12:38.378Z,1005.9
2018-05-18T08:13:39.098Z,1005.9
2018-05-18T08:14:40.073Z,1005.9
2018-05-18T08:15:40.791Z,1005.9
2018-05-18T08:16:41.767Z,1005.9
2018-05-18T08:17:42.548Z,1005.9
2018-05-18T08:18:43.528Z,1005.8
2018-05-18T08:19:44.262Z,1005.9
2018-05-18T08:20:44.987Z,1005.9
2018-05-18T08:21:45.723Z,1005.9
2018-05-18T08:22:46.491Z,1005.9
2018-05-18T08:23:47.222Z,1005.9
2018-05-18T08:24:47.955Z,1005.9
2018-05-18T08:25:48.687Z,1005.9
2018-05-18T08:26:49.418Z,1005.9
2018-05-18T08:27:50.154Z,1005.9
2018-05-18T08:28:50.887Z,1005.9
2018-05-18T08:29:51.914Z,1005.9
2018-05-18T08:30:52.644Z,1006.0
2018-05-18T08:31:53.373Z,1006.0
2018-05-18T08:32:54.349Z,1006.0
2018-05-18T08:33:55.083Z,1006.0
2018-05-18T08:34:55.815Z,1006.0
2018-05-18T08:35:56.549Z,1005.9
2018-05-18T08:36:57.279Z,1005.9
2018-05-18T08:37:58.220Z,1005.9
2018-05-18T08:38:58.987Z,1005.9
2018-05-18T08:39:59.785Z,1006.0
2018-05-18T08:41:00.771Z,1006.1
2018-05-18T08:42:01.526Z,1006.1
2018-05-18T08:43:02.255Z,1006.0
2018-05-18T08:44:03.281Z,1006.1
2018-05-18T08:45:04.001Z,1006.1
2018-05-18T08:46:04.879Z,1006.1
2018-05-18T08:47:05.614Z,1006.1
2018-05-18T08:48:06.352Z,1006.1
2018-05-18T08:49:07.097Z,1006.1
2018-05-18T08:50:07.823Z,1006.1
2018-05-18T08:51:09.277Z,1006.1
2018-05-18T08:52:10.238Z,1006.1
2018-05-18T08:53:10.959Z,1006.1
2018-05-18T08:54:11.688Z,1006.1
2018-05-18T08:55:12.415Z,1006.1
2018-05-18T08:56:13.251Z,1006.1
2018-05-18T08:57:14.232Z,1006.1
2018-05-18T08:58:14.953Z,1006.1
2018-05-18T08:59:15.683Z,1006.1
2018-05-18T09:00:16.410Z,1006.1
2018-05-18T09:01:17.189Z,1006.1
2018-05-18T09:02:17.932Z,1006.1
2018-05-18T09:03:18.667Z,1006.0
2018-05-18T09:04:19.412Z,1006.1
2018-05-18T09:05:20.143Z,1006.1
2018-05-18T09:06:21.419Z,1006.1
2018-05-18T09:07:22.150Z,1006.1
2018-05-18T09:08:22.877Z,1006.1
2018-05-18T09:09:23.611Z,1006.1
2018-05-18T09:10:24.346Z,1006.1
2018-05-18T09:11:25.090Z,1006.2
2018-05-18T09:12:25.811Z,1006.1
2018-05-18T09:13:26.547Z,1006.1
2018-05-18T09:14:27.281Z,1006.2
2018-05-18T09:15:28.002Z,1006.1
2018-05-18T09:16:28.744Z,1006.1
2018-05-18T09:17:29.460Z,1006.1
2018-05-18T09:18:30.186Z,1006.1
2018-05-18T09:19:31.168Z,1006.1
2018-05-18T09:20:32.355Z,1006.1
2018-05-18T09:21:33.091Z,1006.1
2018-05-18T09:22:33.833Z,1006.1
2018-05-18T09:23:34.586Z,1006.1
2018-05-18T09:24:35.309Z,1006.1
2018-05-18T09:25:36.041Z,1006.2
2018-05-18T09:26:36.769Z,1006.1
2018-05-18T09:27:37.491Z,1006.1
2018-05-18T09:28:38.219Z,1006.1
2018-05-18T09:29:38.944Z,1006.1
2018-05-18T09:30:39.682Z,1006.1
2018-05-18T09:31:40.416Z,1006.1
2018-05-18T09:32:41.150Z,1006.1
2018-05-18T09:33:41.873Z,1006.1
2018-05-18T09:34:42.597Z,1006.1
2018-05-18T09:35:43.322Z,1006.1
2018-05-18T09:36:44.351Z,1006.1
2018-05-18T09:37:45.085Z,1006.1
2018-05-18T09:38:45.819Z,1006.1
2018-05-18T09:39:46.831Z,1006.1
2018-05-18T09:40:47.560Z,1006.1
2018-05-18T09:41:48.253Z,1006.1
2018-05-18T09:42:48.984Z,1006.1
2018-05-18T09:43:49.709Z,1006.1
2018-05-18T09:44:50.440Z,1006.1
2018-05-18T09:45:51.432Z,1006.1
2018-05-18T09:46:52.171Z,1006.1
2018-05-18T09:47:52.904Z,1006.1
2018-05-18T09:48:53.649Z,1006.1
2018-05-18T09:49:54.396Z,1006.1
2018-05-18T09:50:55.132Z,1006.1
2018-05-18T09:51:55.860Z,1006.1
2018-05-18T09:52:56.590Z,1006.1
2018-05-18T09:53:57.331Z,1006.1
2018-05-18T09:54:58.301Z,1006.1
2018-05-18T09:55:58.786Z,1006.1
2018-05-18T09:56:59.525Z,1006.1
2018-05-18T09:58:00.254Z,1006.2
2018-05-18T09:59:00.986Z,1006.1
2018-05-18T10:00:01.767Z,1006.1
2018-05-18T10:01:02.517Z,1006.2
2018-05-18T10:02:03.246Z,1006.1
2018-05-18T10:03:03.978Z,1006.1
2018-05-18T10:04:04.700Z,1006.1
2018-05-18T10:05:05.434Z,1006.1
2018-05-18T10:06:06.167Z,1006.1
2018-05-18T10:07:06.951Z,1006.1
2018-05-18T10:08:07.700Z,1006.1
2018-05-18T10:09:08.429Z,1006.1
2018-05-18T10:10:09.163Z,1006.2
2018-05-18T10:11:09.887Z,1006.2
2018-05-18T10:12:10.771Z,1006.1
2018-05-18T10:13:11.496Z,1006.1
2018-05-18T10:14:12.218Z,1006.1
2018-05-18T10:15:12.950Z,1006.1
2018-05-18T10:16:13.685Z,1006.1
2018-05-18T10:17:14.467Z,1006.1
2018-05-18T10:18:15.201Z,1006.1
2018-05-18T10:19:15.946Z,1006.2
2018-05-18T10:20:16.677Z,1006.1
2018-05-18T10:21:17.408Z,1006.1
2018-05-18T10:22:18.142Z,1006.1
2018-05-18T10:23:18.869Z,1006.1
2018-05-18T10:24:19.661Z,1006.1
2018-05-18T10:25:20.399Z,1006.1
2018-05-18T10:26:21.141Z,1006.1
2018-05-18T10:27:21.856Z,1006.1
2018-05-18T10:28:22.832Z,1006.1
2018-05-18T10:29:23.806Z,1006.1
2018-05-18T10:30:24.539Z,1006.1
2018-05-18T10:31:25.357Z,1006.1
2018-05-18T10:32:26.096Z,1006.2
2018-05-18T10:33:26.833Z,1006.1
2018-05-18T10:34:27.563Z,1006.2
2018-05-18T10:35:28.548Z,1006.1
2018-05-18T10:36:29.379Z,1006.2
2018-05-18T10:37:30.106Z,1006.1
2018-05-18T10:38:30.839Z,1006.1
2018-05-18T10:39:31.619Z,1006.1
2018-05-18T10:40:32.311Z,1006.1
2018-05-18T10:41:33.057Z,1006.2
2018-05-18T10:42:33.780Z,1006.1
2018-05-18T10:43:34.517Z,1006.1
2018-05-18T10:44:35.249Z,1006.1
2018-05-18T10:45:36.252Z,1006.1
2018-05-18T10:46:36.991Z,1006.1
2018-05-18T10:47:38.042Z,1006.1
2018-05-18T10:48:39.165Z,1006.2
2018-05-18T10:49:39.904Z,1006.1
2018-05-18T10:50:40.632Z,1006.2
2018-05-18T10:51:41.355Z,1006.1
2018-05-18T10:52:42.103Z,1006.2
2018-05-18T10:53:44.050Z,1006.2
2018-05-18T10:54:44.849Z,1006.2
2018-05-18T10:55:45.582Z,1006.2
2018-05-18T10:56:46.306Z,1006.2
2018-05-18T10:57:47.040Z,1006.1
2018-05-18T10:58:48.018Z,1006.1
2018-05-18T10:59:48.743Z,1006.2
2018-05-18T11:00:49.467Z,1006.1
2018-05-18T11:01:50.197Z,1006.1
2018-05-18T11:02:50.932Z,1006.1
2018-05-18T11:03:51.664Z,1006.1
2018-05-18T11:04:52.399Z,1006.1
2018-05-18T11:05:53.389Z,1006.1
2018-05-18T11:06:54.188Z,1006.1
2018-05-18T11:07:54.848Z,1006.1
2018-05-18T11:08:55.583Z,1006.1
2018-05-18T11:09:56.324Z,1006.1
2018-05-18T11:10:57.296Z,1006.1
2018-05-18T11:11:58.163Z,1006.1
2018-05-18T11:12:58.902Z,1006.2
2018-05-18T11:14:00.018Z,1006.2
2018-05-18T11:15:01.091Z,1006.2
2018-05-18T11:16:01.829Z,1006.1
2018-05-18T11:17:02.565Z,1006.2
2018-05-18T11:18:03.295Z,1006.1
2018-05-18T11:19:04.380Z,1006.2
2018-05-18T11:20:05.204Z,1006.2
2018-05-18T11:21:05.876Z,1006.1
2018-05-18T11:22:06.614Z,1006.1
2018-05-18T11:23:07.361Z,1006.1
2018-05-18T11:24:08.097Z,1006.1
2018-05-18T11:25:08.828Z,1006.1
2018-05-18T11:26:09.567Z,1006.1
2018-05-18T11:27:10.297Z,1006.1
2018-05-18T11:28:11.047Z,1006.1
2018-05-18T11:29:11.777Z,1006.1
2018-05-18T11:30:12.860Z,1006.1
2018-05-18T11:31:13.591Z,1006.1
2018-05-18T11:32:14.321Z,1006.1
2018-05-18T11:33:15.155Z,1006.1
2018-05-18T11:34:15.796Z,1006.0
2018-05-18T11:35:16.778Z,1006.0
2018-05-18T11:36:17.514Z,1006.0
2018-05-18T11:37:18.498Z,1006.0
2018-05-18T11:38:19.711Z,1006.0
2018-05-18T11:39:20.468Z,1006.0
2018-05-18T11:40:21.453Z,1006.0
2018-05-18T11:41:22.424Z,1006.0
2018-05-18T11:42:23.738Z,1006.0
2018-05-18T11:43:24.458Z,1006.0
2018-05-18T11:44:25.222Z,1006.0
2018-05-18T11:45:25.956Z,1006.0
2018-05-18T11:46:26.777Z,1006.0
2018-05-18T11:47:27.508Z,1006.0
2018-05-18T11:48:28.241Z,1006.0
2018-05-18T11:49:28.976Z,1006.0
2018-05-18T11:50:29.713Z,1006.0
2018-05-18T11:51:30.965Z,1006.0
2018-05-18T11:52:32.040Z,1006.0
2018-05-18T11:53:32.776Z,1005.9
2018-05-18T11:54:33.505Z,1005.9
2018-05-18T11:55:34.241Z,1005.9
2018-05-18T11:56:34.959Z,1005.9
2018-05-18T11:57:35.736Z,1005.9
2018-05-18T11:58:36.477Z,1005.9
2018-05-18T11:59:37.216Z,1005.9
2018-05-18T12:00:37.946Z,1005.9
2018-05-18T12:01:38.930Z,1005.9
2018-05-18T12:02:40.022Z,1005.9
2018-05-18T12:03:40.774Z,1005.9
2018-05-18T12:04:41.494Z,1005.9
2018-05-18T12:05:42.229Z,1005.9
2018-05-18T12:06:42.958Z,1005.9
2018-05-18T12:07:43.687Z,1005.9
2018-05-18T12:08:44.764Z,1005.9
2018-05-18T12:09:45.390Z,1005.9
2018-05-18T12:10:46.124Z,1005.9
2018-05-18T12:11:46.863Z,1005.9
2018-05-18T12:12:47.593Z,1005.9
2018-05-18T12:13:48.328Z,1005.9
2018-05-18T12:14:49.060Z,1005.9
2018-05-18T12:15:49.793Z,1005.8
2018-05-18T12:16:50.525Z,1005.8
2018-05-18T12:17:51.263Z,1005.8
2018-05-18T12:18:51.996Z,1005.8
2018-05-18T12:19:52.739Z,1005.8
2018-05-18T12:20:53.625Z,1005.8
2018-05-18T12:21:54.354Z,1005.8
2018-05-18T12:22:55.330Z,1005.8
2018-05-18T12:23:56.089Z,1005.8
2018-05-18T12:24:56.828Z,1005.8
2018-05-18T12:25:57.576Z,1005.8
2018-05-18T12:26:58.320Z,1005.8
2018-05-18T12:27:59.050Z,1005.8
2018-05-18T12:28:59.801Z,1005.8
2018-05-18T12:30:00.537Z,1005.8
2018-05-18T12:31:01.609Z,1005.8
2018-05-18T12:32:02.343Z,1005.8
2018-05-18T12:33:03.338Z,1005.7
2018-05-18T12:34:04.073Z,1005.7
2018-05-18T12:35:04.803Z,1005.7
2018-05-18T12:36:05.544Z,1005.7
2018-05-18T12:37:06.267Z,1005.7
2018-05-18T12:38:07.072Z,1005.7